sensor_id;sensor_type;location;lat;lon;timestamp;pressure;altitude;pressure_sealevel;temperature;humidity
85914;BME280;76454;48.724;16.968;2024-02-15T00:00:20;100410.53;;;18.18;44.51
85914;BME280;76454;48.724;16.968;2024-02-15T00:02:45;100410.81;;;18.16;44.82
85914;BME280;76454;48.724;16.968;2024-02-15T00:05:11;100413.22;;;18.18;44.50
85914;BME280;76454;48.724;16.968;2024-02-15T00:07:36;100416.50;;;18.15;44.56
85914;BME280;76454;48.724;16.968;2024-02-15T00:10:01;100416.22;;;18.16;44.68
85914;BME280;76454;48.724;16.968;2024-02-15T00:12:28;100424.59;;;18.15;44.81
85914;BME280;76454;48.724;16.968;2024-02-15T00:14:53;100425.44;;;18.15;44.69
85914;BME280;76454;48.724;16.968;2024-02-15T00:17:19;100429.22;;;18.14;44.82
85914;BME280;76454;48.724;16.968;2024-02-15T00:19:44;100429.22;;;18.14;44.83
85914;BME280;76454;48.724;16.968;2024-02-15T00:22:09;100427.31;;;18.15;44.95
85914;BME280;76454;48.724;16.968;2024-02-15T00:24:36;100424.59;;;18.15;44.70
85914;BME280;76454;48.724;16.968;2024-02-15T00:27:02;100423.22;;;18.17;44.70
85914;BME280;76454;48.724;16.968;2024-02-15T00:29:27;100411.88;;;18.20;44.37
85914;BME280;76454;48.724;16.968;2024-02-15T00:31:54;100414.25;;;18.27;44.32
85914;BME280;76454;48.724;16.968;2024-02-15T00:34:20;100419.63;;;18.32;44.17
85914;BME280;76454;48.724;16.968;2024-02-15T00:36:45;100414.16;;;18.37;43.80
85914;BME280;76454;48.724;16.968;2024-02-15T00:39:11;100416.88;;;18.42;43.44
85914;BME280;76454;48.724;16.968;2024-02-15T00:41:36;100413.56;;;18.45;43.17
85914;BME280;76454;48.724;16.968;2024-02-15T00:44:02;100419.25;;;18.49;43.12
85914;BME280;76454;48.724;16.968;2024-02-15T00:46:27;100420.28;;;18.53;43.05
85914;BME280;76454;48.724;16.968;2024-02-15T00:48:54;100428.66;;;18.57;42.83
85914;BME280;76454;48.724;16.968;2024-02-15T00:51:19;100421.84;;;18.59;42.84
85914;BME280;76454;48.724;16.968;2024-02-15T00:53:44;100432.97;;;18.58;42.53
85914;BME280;76454;48.724;16.968;2024-02-15T00:56:09;100428.16;;;18.55;42.61
85914;BME280;76454;48.724;16.968;2024-02-15T00:58:34;100419.25;;;18.49;42.37
85914;BME280;76454;48.724;16.968;2024-02-15T01:01:00;100424.41;;;18.45;42.82
85914;BME280;76454;48.724;16.968;2024-02-15T01:03:25;100416.31;;;18.40;43.02
85914;BME280;76454;48.724;16.968;2024-02-15T01:05:50;100419.56;;;18.37;43.10
85914;BME280;76454;48.724;16.968;2024-02-15T01:08:16;100420.94;;;18.35;43.51
85914;BME280;76454;48.724;16.968;2024-02-15T01:10:41;100425.84;;;18.33;43.88
85914;BME280;76454;48.724;16.968;2024-02-15T01:13:07;100423.44;;;18.31;43.77
85914;BME280;76454;48.724;16.968;2024-02-15T01:15:33;100433.72;;;18.29;43.98
85914;BME280;76454;48.724;16.968;2024-02-15T01:17:58;100436.72;;;18.27;44.14
85914;BME280;76454;48.724;16.968;2024-02-15T01:20:24;100431.84;;;18.24;44.22
85914;BME280;76454;48.724;16.968;2024-02-15T01:22:49;100431.06;;;18.24;44.31
85914;BME280;76454;48.724;16.968;2024-02-15T01:25:16;100427.81;;;18.22;44.27
85914;BME280;76454;48.724;16.968;2024-02-15T01:27:42;100424.31;;;18.21;44.54
85914;BME280;76454;48.724;16.968;2024-02-15T01:30:07;100429.97;;;18.20;44.43
85914;BME280;76454;48.724;16.968;2024-02-15T01:32:33;100424.06;;;18.18;44.49
85914;BME280;76454;48.724;16.968;2024-02-15T01:34:58;100421.34;;;18.18;44.69
85914;BME280;76454;48.724;16.968;2024-02-15T01:37:23;100425.13;;;18.17;44.57
85914;BME280;76454;48.724;16.968;2024-02-15T01:39:49;100411.91;;;18.15;44.85
85914;BME280;76454;48.724;16.968;2024-02-15T01:42:15;100410.56;;;18.12;44.87
85914;BME280;76454;48.724;16.968;2024-02-15T01:44:40;100410.56;;;18.12;44.66
85914;BME280;76454;48.724;16.968;2024-02-15T01:47:06;100411.94;;;18.10;44.99
85914;BME280;76454;48.724;16.968;2024-02-15T01:49:31;100413.53;;;18.11;44.72
85914;BME280;76454;48.724;16.968;2024-02-15T01:51:57;100408.41;;;18.09;44.76
85914;BME280;76454;48.724;16.968;2024-02-15T01:54:23;100409.47;;;18.08;44.75
85914;BME280;76454;48.724;16.968;2024-02-15T01:56:49;100405.97;;;18.08;44.79
85914;BME280;76454;48.724;16.968;2024-02-15T01:59:15;100407.06;;;18.07;44.89
85914;BME280;76454;48.724;16.968;2024-02-15T02:01:40;100411.09;;;18.09;44.70
85914;BME280;76454;48.724;16.968;2024-02-15T02:04:06;100407.59;;;18.09;44.81
85914;BME280;76454;48.724;16.968;2024-02-15T02:06:31;100405.69;;;18.09;44.98
85914;BME280;76454;48.724;16.968;2024-02-15T02:08:56;100403.00;;;18.09;44.75
85914;BME280;76454;48.724;16.968;2024-02-15T02:11:22;100395.41;;;18.11;44.90
85914;BME280;76454;48.724;16.968;2024-02-15T02:13:47;100392.66;;;18.17;44.64
85914;BME280;76454;48.724;16.968;2024-02-15T02:16:25;100393.97;;;18.24;44.45
85914;BME280;76454;48.724;16.968;2024-02-15T02:18:51;100394.47;;;18.32;43.97
85914;BME280;76454;48.724;16.968;2024-02-15T02:21:16;100383.59;;;18.37;43.93
85914;BME280;76454;48.724;16.968;2024-02-15T02:23:41;100383.53;;;18.42;43.24
85914;BME280;76454;48.724;16.968;2024-02-15T02:26:07;100382.41;;;18.48;43.24
85914;BME280;76454;48.724;16.968;2024-02-15T02:28:35;100390.50;;;18.53;43.24
85914;BME280;76454;48.724;16.968;2024-02-15T02:31:01;100378.03;;;18.57;42.60
85914;BME280;76454;48.724;16.968;2024-02-15T02:33:26;100375.56;;;18.61;42.50
85914;BME280;76454;48.724;16.968;2024-02-15T02:35:53;100381.19;;;18.65;42.63
85914;BME280;76454;48.724;16.968;2024-02-15T02:38:19;100372.28;;;18.64;42.34
85914;BME280;76454;48.724;16.968;2024-02-15T02:40:45;100373.34;;;18.63;42.10
85914;BME280;76454;48.724;16.968;2024-02-15T02:43:10;100376.41;;;18.56;42.14
85914;BME280;76454;48.724;16.968;2024-02-15T02:45:35;100376.44;;;18.51;42.56
85914;BME280;76454;48.724;16.968;2024-02-15T02:48:00;100381.91;;;18.46;42.66
85914;BME280;76454;48.724;16.968;2024-02-15T02:50:26;100381.66;;;18.42;43.10
85914;BME280;76454;48.724;16.968;2024-02-15T02:52:51;100375.19;;;18.38;43.14
85914;BME280;76454;48.724;16.968;2024-02-15T02:55:17;100371.97;;;18.36;43.35
85914;BME280;76454;48.724;16.968;2024-02-15T02:57:42;100373.34;;;18.34;43.61
85914;BME280;76454;48.724;16.968;2024-02-15T03:00:09;100371.72;;;18.33;43.84
85914;BME280;76454;48.724;16.968;2024-02-15T03:02:37;100381.22;;;18.30;43.77
85914;BME280;76454;48.724;16.968;2024-02-15T03:05:03;100377.19;;;18.27;43.99
85914;BME280;76454;48.724;16.968;2024-02-15T03:07:29;100377.44;;;18.26;44.05
85914;BME280;76454;48.724;16.968;2024-02-15T03:09:57;100383.97;;;18.25;44.21
85914;BME280;76454;48.724;16.968;2024-02-15T03:12:22;100385.03;;;18.24;44.39
85914;BME280;76454;48.724;16.968;2024-02-15T03:14:47;100377.47;;;18.21;44.52
85914;BME280;76454;48.724;16.968;2024-02-15T03:17:12;100372.34;;;18.19;44.35
85914;BME280;76454;48.724;16.968;2024-02-15T03:19:37;100378.06;;;18.18;44.71
85914;BME280;76454;48.724;16.968;2024-02-15T03:22:03;100378.06;;;18.18;44.56
85914;BME280;76454;48.724;16.968;2024-02-15T03:24:28;100374.81;;;18.16;44.57
85914;BME280;76454;48.724;16.968;2024-02-15T03:26:53;100380.22;;;18.16;44.77
85914;BME280;76454;48.724;16.968;2024-02-15T03:29:20;100375.09;;;18.14;44.88
85914;BME280;76454;48.724;16.968;2024-02-15T03:31:46;100382.38;;;18.13;44.76
85914;BME280;76454;48.724;16.968;2024-02-15T03:34:14;100375.38;;;18.12;44.98
85914;BME280;76454;48.724;16.968;2024-02-15T03:36:40;100379.19;;;18.11;44.82
85914;BME280;76454;48.724;16.968;2024-02-15T03:39:06;100376.75;;;18.10;44.89
85914;BME280;76454;48.724;16.968;2024-02-15T03:41:31;100378.63;;;18.09;45.00
85914;BME280;76454;48.724;16.968;2024-02-15T03:43:57;100378.94;;;18.08;45.13
85914;BME280;76454;48.724;16.968;2024-02-15T03:46:24;100386.25;;;18.07;45.01
85914;BME280;76454;48.724;16.968;2024-02-15T03:48:49;100381.91;;;18.06;44.92
85914;BME280;76454;48.724;16.968;2024-02-15T03:51:17;100389.22;;;18.06;44.94
85914;BME280;76454;48.724;16.968;2024-02-15T03:53:48;100386.78;;;18.04;44.80
85914;BME280;76454;48.724;16.968;2024-02-15T03:56:13;100398.69;;;18.03;45.13
85914;BME280;76454;48.724;16.968;2024-02-15T03:58:39;100402.22;;;18.04;45.05
85914;BME280;76454;48.724;16.968;2024-02-15T04:01:04;100393.25;;;18.08;44.85
85914;BME280;76454;48.724;16.968;2024-02-15T04:03:31;100397.53;;;18.15;44.87
85914;BME280;76454;48.724;16.968;2024-02-15T04:05:57;100388.31;;;18.21;44.19
85914;BME280;76454;48.724;16.968;2024-02-15T04:08:22;100384.19;;;18.28;44.07
85914;BME280;76454;48.724;16.968;2024-02-15T04:10:48;100389.81;;;18.37;43.90
85914;BME280;76454;48.724;16.968;2024-02-15T04:13:13;100386.50;;;18.45;43.28
85914;BME280;76454;48.724;16.968;2024-02-15T04:15:38;100386.47;;;18.51;42.97
85914;BME280;76454;48.724;16.968;2024-02-15T04:18:04;100389.13;;;18.56;42.81
85914;BME280;76454;48.724;16.968;2024-02-15T04:20:29;100380.97;;;18.61;42.53
85914;BME280;76454;48.724;16.968;2024-02-15T04:22:54;100387.44;;;18.65;42.46
85914;BME280;76454;48.724;16.968;2024-02-15T04:25:19;100392.84;;;18.65;42.73
85914;BME280;76454;48.724;16.968;2024-02-15T04:27:48;100389.09;;;18.61;42.35
85914;BME280;76454;48.724;16.968;2024-02-15T04:30:14;100389.94;;;18.56;42.31
85914;BME280;76454;48.724;16.968;2024-02-15T04:32:40;100384.56;;;18.51;42.58
85914;BME280;76454;48.724;16.968;2024-02-15T04:35:05;100390.03;;;18.46;42.71
85914;BME280;76454;48.724;16.968;2024-02-15T04:37:31;100387.59;;;18.44;43.14
85914;BME280;76454;48.724;16.968;2024-02-15T04:39:57;100394.38;;;18.42;43.18
85914;BME280;76454;48.724;16.968;2024-02-15T04:42:23;100391.44;;;18.38;43.28
85914;BME280;76454;48.724;16.968;2024-02-15T04:44:51;100394.13;;;18.38;43.57
85914;BME280;76454;48.724;16.968;2024-02-15T04:47:18;100399.84;;;18.37;43.78
85914;BME280;76454;48.724;16.968;2024-02-15T04:49:43;100400.13;;;18.35;43.68
85914;BME280;76454;48.724;16.968;2024-02-15T04:52:09;100402.28;;;18.33;43.87
85914;BME280;76454;48.724;16.968;2024-02-15T04:54:34;100398.50;;;18.34;43.89
85914;BME280;76454;48.724;16.968;2024-02-15T04:56:59;100399.59;;;18.33;43.82
85914;BME280;76454;48.724;16.968;2024-02-15T04:59:25;100400.66;;;18.32;44.09
85914;BME280;76454;48.724;16.968;2024-02-15T05:01:54;100400.97;;;18.31;44.35
85914;BME280;76454;48.724;16.968;2024-02-15T05:04:19;100401.78;;;18.26;44.45
85914;BME280;76454;48.724;16.968;2024-02-15T05:06:44;100407.00;;;18.22;44.31
85914;BME280;76454;48.724;16.968;2024-02-15T05:09:10;100407.25;;;18.21;44.48
85914;BME280;76454;48.724;16.968;2024-02-15T05:11:42;100408.34;;;18.20;44.52
85914;BME280;76454;48.724;16.968;2024-02-15T05:14:11;100415.13;;;18.17;44.55
85914;BME280;76454;48.724;16.968;2024-02-15T05:16:36;100404.56;;;18.16;44.95
85914;BME280;76454;48.724;16.968;2024-02-15T05:19:08;100408.66;;;18.13;44.64
85914;BME280;76454;48.724;16.968;2024-02-15T05:21:36;100412.44;;;18.12;44.77
85914;BME280;76454;48.724;16.968;2024-02-15T05:24:02;100421.66;;;18.11;44.77
85914;BME280;76454;48.724;16.968;2024-02-15T05:26:28;100423.84;;;18.09;44.87
85914;BME280;76454;48.724;16.968;2024-02-15T05:28:53;100427.63;;;18.08;44.96
85914;BME280;76454;48.724;16.968;2024-02-15T05:31:19;100426.84;;;18.07;44.82
85914;BME280;76454;48.724;16.968;2024-02-15T05:33:50;100423.59;;;18.05;45.03
85914;BME280;76454;48.724;16.968;2024-02-15T05:36:16;100429.00;;;18.05;45.18
85914;BME280;76454;48.724;16.968;2024-02-15T05:38:45;100419.25;;;18.04;44.89
85914;BME280;76454;48.724;16.968;2024-02-15T05:41:10;100426.59;;;18.04;44.82
85914;BME280;76454;48.724;16.968;2024-02-15T05:43:36;100429.28;;;18.04;44.75
85914;BME280;76454;48.724;16.968;2024-02-15T05:46:02;100423.34;;;18.02;45.17
85914;BME280;76454;48.724;16.968;2024-02-15T05:48:27;100412.50;;;18.02;44.97
85914;BME280;76454;48.724;16.968;2024-02-15T05:50:54;100416.00;;;18.07;44.88
85914;BME280;76454;48.724;16.968;2024-02-15T05:53:19;100420.03;;;18.15;44.60
85914;BME280;76454;48.724;16.968;2024-02-15T05:55:44;100412.41;;;18.22;44.21
85914;BME280;76454;48.724;16.968;2024-02-15T05:58:09;100419.38;;;18.28;43.90
85914;BME280;76454;48.724;16.968;2024-02-15T06:00:36;100419.34;;;18.34;43.90
85914;BME280;76454;48.724;16.968;2024-02-15T06:03:03;100416.63;;;18.39;43.78
85914;BME280;76454;48.724;16.968;2024-02-15T06:05:29;100414.16;;;18.42;43.17
85914;BME280;76454;48.724;16.968;2024-02-15T06:07:54;100418.69;;;18.47;43.11
85914;BME280;76454;48.724;16.968;2024-02-15T06:10:19;100415.50;;;18.45;42.72
85914;BME280;76454;48.724;16.968;2024-02-15T06:12:44;100411.13;;;18.49;43.33
85914;BME280;76454;48.724;16.968;2024-02-15T06:15:10;100423.03;;;18.48;43.13
85914;BME280;76454;48.724;16.968;2024-02-15T06:17:39;100426.03;;;18.47;42.95
85914;BME280;76454;48.724;16.968;2024-02-15T06:20:05;100427.41;;;18.44;42.97
85914;BME280;76454;48.724;16.968;2024-02-15T06:22:30;100424.97;;;18.42;42.94
85914;BME280;76454;48.724;16.968;2024-02-15T06:24:56;100430.66;;;18.41;43.02
85914;BME280;76454;48.724;16.968;2024-02-15T06:27:21;100428.00;;;18.36;43.26
85914;BME280;76454;48.724;16.968;2024-02-15T06:29:49;100434.50;;;18.35;43.39
85914;BME280;76454;48.724;16.968;2024-02-15T06:32:33;100440.72;;;18.35;43.43
85914;BME280;76454;48.724;16.968;2024-02-15T06:35:17;100441.03;;;18.34;43.51
85914;BME280;76454;48.724;16.968;2024-02-15T06:38:00;100445.88;;;18.32;43.63
85914;BME280;76454;48.724;16.968;2024-02-15T06:40:55;100448.59;;;18.32;43.97
85914;BME280;76454;48.724;16.968;2024-02-15T06:43:20;100441.03;;;18.28;43.99
85914;BME280;76454;48.724;16.968;2024-02-15T06:45:46;100446.72;;;18.27;44.14
85914;BME280;76454;48.724;16.968;2024-02-15T06:48:12;100444.84;;;18.27;44.01
85914;BME280;76454;48.724;16.968;2024-02-15T06:50:37;100447.81;;;18.26;44.07
85914;BME280;76454;48.724;16.968;2024-02-15T06:53:02;100444.31;;;18.25;44.20
85914;BME280;76454;48.724;16.968;2024-02-15T06:55:28;100444.59;;;18.24;44.31
85914;BME280;76454;48.724;16.968;2024-02-15T06:57:53;100441.34;;;18.22;44.47
85914;BME280;76454;48.724;16.968;2024-02-15T07:00:20;100449.19;;;18.23;44.58
85914;BME280;76454;48.724;16.968;2024-02-15T07:02:45;100443.81;;;18.18;44.44
85914;BME280;76454;48.724;16.968;2024-02-15T07:05:10;100446.78;;;18.17;44.64
85914;BME280;76454;48.724;16.968;2024-02-15T07:07:35;100447.88;;;18.16;44.86
85914;BME280;76454;48.724;16.968;2024-02-15T07:10:01;100451.66;;;18.15;44.74
85914;BME280;76454;48.724;16.968;2024-02-15T07:12:28;100461.97;;;18.12;45.00
85914;BME280;76454;48.724;16.968;2024-02-15T07:14:53;100451.69;;;18.09;45.13
85914;BME280;76454;48.724;16.968;2024-02-15T07:17:19;100460.91;;;18.08;45.29
85914;BME280;76454;48.724;16.968;2024-02-15T07:19:45;100454.69;;;18.08;45.25
85914;BME280;76454;48.724;16.968;2024-02-15T07:22:14;100462.81;;;18.08;45.31
85914;BME280;76454;48.724;16.968;2024-02-15T07:24:39;100456.06;;;18.05;45.62
85914;BME280;76454;48.724;16.968;2024-02-15T07:27:05;100465.25;;;18.04;45.70
85914;BME280;76454;48.724;16.968;2024-02-15T07:29:30;100458.22;;;18.03;45.56
85914;BME280;76454;48.724;16.968;2024-02-15T07:31:57;100457.13;;;18.04;45.79
85914;BME280;76454;48.724;16.968;2024-02-15T07:34:22;100457.72;;;18.01;45.88
85914;BME280;76454;48.724;16.968;2024-02-15T07:36:47;100463.13;;;18.01;45.85
85914;BME280;76454;48.724;16.968;2024-02-15T07:39:13;100460.94;;;18.03;45.94
85914;BME280;76454;48.724;16.968;2024-02-15T07:41:48;100462.81;;;18.08;45.83
85914;BME280;76454;48.724;16.968;2024-02-15T07:44:13;100458.69;;;18.16;45.46
85914;BME280;76454;48.724;16.968;2024-02-15T07:46:39;100470.56;;;18.20;45.29
85914;BME280;76454;48.724;16.968;2024-02-15T07:49:05;100469.22;;;18.27;44.95
85914;BME280;76454;48.724;16.968;2024-02-15T07:51:31;100471.06;;;18.32;44.69
85914;BME280;76454;48.724;16.968;2024-02-15T07:53:56;100475.34;;;18.38;44.52
85914;BME280;76454;48.724;16.968;2024-02-15T07:56:22;100463.97;;;18.41;44.20
85914;BME280;76454;48.724;16.968;2024-02-15T07:58:48;100466.34;;;18.48;44.09
85914;BME280;76454;48.724;16.968;2024-02-15T08:01:16;100465.53;;;18.53;43.79
85914;BME280;76454;48.724;16.968;2024-02-15T08:03:41;100455.47;;;18.53;43.51
85914;BME280;76454;48.724;16.968;2024-02-15T08:06:10;100464.97;;;18.51;43.53
85914;BME280;76454;48.724;16.968;2024-02-15T08:08:37;100461.22;;;18.47;43.64
85914;BME280;76454;48.724;16.968;2024-02-15T08:11:02;100460.97;;;18.43;43.67
85914;BME280;76454;48.724;16.968;2024-02-15T08:13:28;100458.31;;;18.38;43.98
85914;BME280;76454;48.724;16.968;2024-02-15T08:15:54;100465.88;;;18.36;44.07
85914;BME280;76454;48.724;16.968;2024-02-15T08:18:19;100461.84;;;18.33;44.29
85914;BME280;76454;48.724;16.968;2024-02-15T08:20:45;100452.38;;;18.31;44.35
85914;BME280;76454;48.724;16.968;2024-02-15T08:23:10;100464.59;;;18.28;44.60
85914;BME280;76454;48.724;16.968;2024-02-15T08:25:37;100457.84;;;18.25;44.54
85914;BME280;76454;48.724;16.968;2024-02-15T08:28:03;100465.97;;;18.25;44.97
85914;BME280;76454;48.724;16.968;2024-02-15T08:30:30;100462.44;;;18.25;45.10
85914;BME280;76454;48.724;16.968;2024-02-15T08:32:55;100458.13;;;18.24;45.18
85914;BME280;76454;48.724;16.968;2024-02-15T08:35:20;100464.03;;;18.26;45.12
85914;BME280;76454;48.724;16.968;2024-02-15T08:37:46;100471.38;;;18.25;44.98
85914;BME280;76454;48.724;16.968;2024-02-15T08:40:13;100464.34;;;18.24;45.09
85914;BME280;76454;48.724;16.968;2024-02-15T08:42:40;100466.25;;;18.24;45.29
85914;BME280;76454;48.724;16.968;2024-02-15T08:45:06;100463.81;;;18.22;45.23
85914;BME280;76454;48.724;16.968;2024-02-15T08:47:34;100466.53;;;18.22;45.25
85914;BME280;76454;48.724;16.968;2024-02-15T08:49:59;100461.38;;;18.21;45.14
85914;BME280;76454;48.724;16.968;2024-02-15T08:52:25;100466.78;;;18.21;45.24
85914;BME280;76454;48.724;16.968;2024-02-15T08:54:51;100463.00;;;18.22;45.32
85914;BME280;76454;48.724;16.968;2024-02-15T08:57:17;100470.56;;;18.20;45.33
85914;BME280;76454;48.724;16.968;2024-02-15T08:59:44;100460.03;;;18.18;45.29
85914;BME280;76454;48.724;16.968;2024-02-15T09:02:09;100469.78;;;18.19;45.45
85914;BME280;76454;48.724;16.968;2024-02-15T09:04:34;100464.66;;;18.18;45.59
85914;BME280;76454;48.724;16.968;2024-02-15T09:06:59;100469.25;;;18.17;45.53
85914;BME280;76454;48.724;16.968;2024-02-15T09:09:29;100474.13;;;18.15;45.39
85914;BME280;76454;48.724;16.968;2024-02-15T09:11:55;100471.44;;;18.15;45.61
85914;BME280;76454;48.724;16.968;2024-02-15T09:14:20;100468.19;;;18.13;45.63
85914;BME280;76454;48.724;16.968;2024-02-15T09:16:45;100469.56;;;18.10;45.68
85914;BME280;76454;48.724;16.968;2024-02-15T09:19:10;100474.97;;;18.10;45.77
85914;BME280;76454;48.724;16.968;2024-02-15T09:21:36;100480.66;;;18.09;45.85
85914;BME280;76454;48.724;16.968;2024-02-15T09:24:01;100474.16;;;18.10;45.80
85914;BME280;76454;48.724;16.968;2024-02-15T09:26:27;100480.06;;;18.17;45.96
85914;BME280;76454;48.724;16.968;2024-02-15T09:28:52;100478.16;;;18.23;45.67
85914;BME280;76454;48.724;16.968;2024-02-15T09:31:18;100479.47;;;18.31;45.33
85914;BME280;76454;48.724;16.968;2024-02-15T09:33:43;100479.44;;;18.36;45.00
85914;BME280;76454;48.724;16.968;2024-02-15T09:36:09;100484.28;;;18.39;44.87
85914;BME280;76454;48.724;16.968;2024-02-15T09:38:35;100486.69;;;18.45;44.87
85914;BME280;76454;48.724;16.968;2024-02-15T09:41:01;100478.81;;;18.49;44.58
85914;BME280;76454;48.724;16.968;2024-02-15T09:43:27;100479.84;;;18.53;44.57
85914;BME280;76454;48.724;16.968;2024-02-15T09:45:54;100479.31;;;18.56;44.19
85914;BME280;76454;48.724;16.968;2024-02-15T09:48:20;100480.09;;;18.57;44.09
85914;BME280;76454;48.724;16.968;2024-02-15T09:50:48;100480.41;;;18.55;43.92
85914;BME280;76454;48.724;16.968;2024-02-15T09:53:18;100474.72;;;18.52;44.38
85914;BME280;76454;48.724;16.968;2024-02-15T09:55:45;100481.81;;;18.48;44.39
85914;BME280;76454;48.724;16.968;2024-02-15T09:58:11;100478.56;;;18.45;44.35
85914;BME280;76454;48.724;16.968;2024-02-15T10:00:37;100473.72;;;18.42;44.52
85914;BME280;76454;48.724;16.968;2024-02-15T10:03:03;100476.16;;;18.39;44.97
85914;BME280;76454;48.724;16.968;2024-02-15T10:05:30;100482.66;;;18.38;44.96
85914;BME280;76454;48.724;16.968;2024-02-15T10:07:56;100477.53;;;18.36;45.14
85914;BME280;76454;48.724;16.968;2024-02-15T10:10:24;100470.50;;;18.35;45.25
85914;BME280;76454;48.724;16.968;2024-02-15T10:12:51;100465.63;;;18.32;45.29
85914;BME280;76454;48.724;16.968;2024-02-15T10:18:01;100455.38;;;18.29;45.62
85914;BME280;76454;48.724;16.968;2024-02-15T10:20:26;100457.56;;;18.27;45.76
85914;BME280;76454;48.724;16.968;2024-02-15T10:22:52;100453.22;;;18.26;45.85
85914;BME280;76454;48.724;16.968;2024-02-15T10:25:18;100452.72;;;18.24;45.94
85914;BME280;76454;48.724;16.968;2024-02-15T10:27:43;100451.63;;;18.25;45.78
85914;BME280;76454;48.724;16.968;2024-02-15T10:30:19;100450.28;;;18.22;45.96
85914;BME280;76454;48.724;16.968;2024-02-15T10:32:45;100448.13;;;18.19;46.14
85914;BME280;76454;48.724;16.968;2024-02-15T10:35:18;100450.03;;;18.19;46.13
85914;BME280;76454;48.724;16.968;2024-02-15T10:37:43;100446.22;;;18.20;46.44
85914;BME280;76454;48.724;16.968;2024-02-15T10:40:08;100442.44;;;18.21;46.40
85914;BME280;76454;48.724;16.968;2024-02-15T10:42:34;100444.06;;;18.22;46.45
85914;BME280;76454;48.724;16.968;2024-02-15T10:45:03;100449.19;;;18.23;46.26
85914;BME280;76454;48.724;16.968;2024-02-15T10:47:35;100450.81;;;18.24;46.19
85914;BME280;76454;48.724;16.968;2024-02-15T10:50:02;100446.75;;;18.22;46.31
85914;BME280;76454;48.724;16.968;2024-02-15T10:52:28;100445.69;;;18.23;46.42
85914;BME280;76454;48.724;16.968;2024-02-15T10:55:04;100451.38;;;18.21;46.25
85914;BME280;76454;48.724;16.968;2024-02-15T10:57:34;100437.84;;;18.21;46.57
85914;BME280;76454;48.724;16.968;2024-02-15T11:00:02;100443.25;;;18.21;46.44
85914;BME280;76454;48.724;16.968;2024-02-15T11:02:38;100432.69;;;18.20;46.44
85914;BME280;76454;48.724;16.968;2024-02-15T11:05:08;100434.59;;;18.19;46.48
85914;BME280;76454;48.724;16.968;2024-02-15T11:07:35;100423.78;;;18.19;46.62
85914;BME280;76454;48.724;16.968;2024-02-15T11:10:00;100427.84;;;18.17;46.63
85914;BME280;76454;48.724;16.968;2024-02-15T11:12:26;100424.06;;;18.18;46.61
85914;BME280;76454;48.724;16.968;2024-02-15T11:14:52;100421.63;;;18.16;46.59
85914;BME280;76454;48.724;16.968;2024-02-15T11:20:02;100413.53;;;18.16;46.64
85914;BME280;76454;48.724;16.968;2024-02-15T11:22:28;100411.03;;;18.20;46.50
85914;BME280;76454;48.724;16.968;2024-02-15T11:24:53;100416.44;;;18.25;46.45
85914;BME280;76454;48.724;16.968;2024-02-15T11:27:25;100406.66;;;18.29;46.52
85914;BME280;76454;48.724;16.968;2024-02-15T11:32:44;100416.03;;;18.42;45.77
85914;BME280;76454;48.724;16.968;2024-02-15T11:40:12;100411.59;;;18.56;45.59
85914;BME280;76454;48.724;16.968;2024-02-15T11:42:38;100403.72;;;18.60;45.26
85914;BME280;76454;48.724;16.968;2024-02-15T11:45:07;100402.84;;;18.65;45.12
85914;BME280;76454;48.724;16.968;2024-02-15T11:47:34;100400.69;;;18.67;44.94
85914;BME280;76454;48.724;16.968;2024-02-15T11:50:01;100405.31;;;18.66;44.58
85914;BME280;76454;48.724;16.968;2024-02-15T11:52:27;100407.47;;;18.64;45.03
85914;BME280;76454;48.724;16.968;2024-02-15T11:54:53;100399.09;;;18.60;44.98
85914;BME280;76454;48.724;16.968;2024-02-15T11:57:18;100398.88;;;18.57;45.12
85914;BME280;76454;48.724;16.968;2024-02-15T12:00:01;100398.63;;;18.53;45.41
85914;BME280;76454;48.724;16.968;2024-02-15T12:02:58;100397.56;;;18.49;45.96
85914;BME280;76454;48.724;16.968;2024-02-15T12:05:42;100400.56;;;18.48;45.96
85914;BME280;76454;48.724;16.968;2024-02-15T12:08:26;100399.25;;;18.45;46.22
85914;BME280;76454;48.724;16.968;2024-02-15T12:11:13;100402.75;;;18.45;46.39
85914;BME280;76454;48.724;16.968;2024-02-15T12:13:57;100396.78;;;18.43;46.48
85914;BME280;76454;48.724;16.968;2024-02-15T12:16:41;100394.66;;;18.40;46.43
85914;BME280;76454;48.724;16.968;2024-02-15T12:19:25;100394.97;;;18.39;46.66
85914;BME280;76454;48.724;16.968;2024-02-15T12:21:50;100388.72;;;18.38;46.77
85914;BME280;76454;48.724;16.968;2024-02-15T12:24:15;100391.19;;;18.35;46.86
85914;BME280;76454;48.724;16.968;2024-02-15T12:26:42;100392.28;;;18.34;46.94
85914;BME280;76454;48.724;16.968;2024-02-15T12:29:07;100382.56;;;18.33;46.96
85914;BME280;76454;48.724;16.968;2024-02-15T12:31:35;100383.63;;;18.32;46.96
85914;BME280;76454;48.724;16.968;2024-02-15T12:34:03;100384.19;;;18.28;47.23
85914;BME280;76454;48.724;16.968;2024-02-15T12:36:35;100381.47;;;18.28;47.09
85914;BME280;76454;48.724;16.968;2024-02-15T12:39:03;100385.28;;;18.27;47.34
85914;BME280;76454;48.724;16.968;2024-02-15T12:41:37;100385.28;;;18.27;47.23
85914;BME280;76454;48.724;16.968;2024-02-15T12:44:02;100385.56;;;18.26;47.31
85914;BME280;76454;48.724;16.968;2024-02-15T12:46:28;100389.88;;;18.27;47.19
85914;BME280;76454;48.724;16.968;2024-02-15T12:49:06;100385.84;;;18.24;47.42
85914;BME280;76454;48.724;16.968;2024-02-15T12:51:31;100385.84;;;18.24;47.52